Time;durP1;ratioP1;P1;durP2;ratioP2;P2;SDS_P1;SDS_P2;PMS_P1;PMS_P2;Temp;Humidity;BMP_temperature;BMP_pressure;BME280_temperature;BME280_humidity;BME280_pressure;Samples;Min_cycle;Max_cycle;Signal;HPM_P1;HPM_P2
2022/01/08 00:00:04;;;;;;;0.40;0.30;;;;;;;9.15;100.00;95299.25;5094960;28;20428;-54
2022/01/08 00:02:33;;;;;;;0.90;0.90;;;;;;;8.64;100.00;95230.38;5134566;27;20531;-53
2022/01/08 00:05:01;;;;;;;1.40;1.00;;;;;;;8.63;100.00;95291.38;5135908;27;20649;-54
2022/01/08 00:07:30;;;;;;;0.30;0.20;;;;;;;8.73;100.00;95294.88;5135755;27;20469;-54
2022/01/08 00:10:00;;;;;;;0.60;0.60;;;;;;;8.93;100.00;95287.00;5135735;27;20430;-53
2022/01/08 00:12:28;;;;;;;4.63;1.33;;;;;;;8.77;100.00;95295.97;5135666;27;20418;-53
2022/01/08 00:14:56;;;;;;;0.40;0.30;;;;;;;8.77;100.00;95293.31;5135384;27;21129;-54
2022/01/08 00:17:25;;;;;;;1.80;1.70;;;;;;;8.84;100.00;95288.56;5135753;27;20426;-54
2022/01/08 00:19:54;;;;;;;0.50;0.50;;;;;;;9.03;100.00;95283.63;5135801;27;20499;-54
2022/01/08 00:22:22;;;;;;;1.27;1.27;;;;;;;9.06;100.00;95275.16;5135164;27;20427;-54
2022/01/08 00:24:52;;;;;;;0.70;0.70;;;;;;;9.25;100.00;95281.56;5135350;27;20954;-58
2022/01/08 00:27:23;;;;;;;0.70;0.70;;;;;;;9.53;100.00;95280.28;5135288;27;20418;-54
2022/01/08 00:29:52;;;;;;;0.30;0.30;;;;;;;9.68;100.00;95277.66;5135602;27;20488;-54
2022/01/08 00:32:20;;;;;;;0.30;0.20;;;;;;;9.66;100.00;95269.19;5135343;27;20465;-54
2022/01/08 00:34:49;;;;;;;0.83;0.83;;;;;;;9.71;100.00;95265.75;5135468;27;20558;-54
2022/01/08 00:37:17;;;;;;;0.30;0.30;;;;;;;9.77;100.00;95275.25;5135539;27;20522;-54
2022/01/08 00:39:47;;;;;;;0.40;0.20;;;;;;;9.78;100.00;95272.38;5135082;27;20487;-54
2022/01/08 00:42:15;;;;;;;2.63;0.43;;;;;;;9.74;100.00;95252.00;5135185;27;20442;-54
2022/01/08 00:44:45;;;;;;;0.40;0.30;;;;;;;9.79;100.00;95254.63;5134939;27;20460;-54
2022/01/08 00:47:14;;;;;;;0.40;0.40;;;;;;;9.69;100.00;95257.28;5134980;27;20484;-54
2022/01/08 00:49:43;;;;;;;1.83;1.63;;;;;;;9.52;100.00;95266.25;5135297;27;20505;-54
2022/01/08 00:52:12;;;;;;;0.47;0.40;;;;;;;9.24;100.00;95261.47;5135188;27;20422;-54
2022/01/08 00:54:40;;;;;;;1.07;1.07;;;;;;;8.86;100.00;95267.16;5134700;27;20519;-54
2022/01/08 00:57:10;;;;;;;0.70;0.70;;;;;;;9.27;100.00;95268.88;5134940;27;20414;-54
2022/01/08 00:59:38;;;;;;;1.27;0.40;;;;;;;9.28;100.00;95267.84;5134769;27;20466;-54
2022/01/08 01:02:08;;;;;;;2.20;0.43;;;;;;;9.17;100.00;95279.44;5134545;27;20469;-53
2022/01/08 01:04:37;;;;;;;2.77;2.67;;;;;;;9.03;100.00;95275.69;5134717;27;20450;-54
2022/01/08 01:07:06;;;;;;;0.50;0.50;;;;;;;9.20;100.00;95272.81;5134672;27;20429;-54
2022/01/08 01:09:34;;;;;;;3.23;0.40;;;;;;;9.51;100.00;95271.84;5134624;27;20450;-54
2022/01/08 01:12:03;;;;;;;0.50;0.40;;;;;;;9.60;100.00;95262.31;5134726;27;20444;-54
2022/01/08 01:14:32;;;;;;;0.83;0.83;;;;;;;9.46;100.00;95269.19;5134816;27;20447;-54
2022/01/08 01:17:00;;;;;;;0.80;0.63;;;;;;;9.33;100.00;95259.09;5134423;27;20427;-54
2022/01/08 01:19:30;;;;;;;1.50;1.03;;;;;;;9.36;100.00;95258.59;5134429;27;20472;-54
2022/01/08 01:22:00;;;;;;;1.23;1.23;;;;;;;9.41;100.00;95254.06;5134266;27;20978;-54
2022/01/08 01:24:30;;;;;;;0.57;0.57;;;;;;;9.19;100.00;95247.44;5134551;27;20461;-54
2022/01/08 01:27:25;;;;;;;3.03;1.60;;;;;;;9.13;100.00;95259.06;5134261;27;20488;-54
2022/01/08 01:30:01;;;;;;;2.00;1.20;;;;;;;8.86;100.00;95252.09;5134089;27;20446;-54
2022/01/08 01:47:00;;;;;;;0.40;0.30;;;;;;;8.37;100.00;95234.22;5133871;27;20434;-54
2022/01/08 01:49:13;;;;;;;0.97;0.83;;;;;;;8.50;100.00;95221.31;5133981;27;20466;-53
2022/01/08 01:51:43;;;;;;;1.27;1.17;;;;;;;8.49;100.00;95222.38;5134028;27;20423;-54
2022/01/08 01:54:11;;;;;;;0.50;0.50;;;;;;;8.61;100.00;95222.16;5133711;27;20419;-54
2022/01/08 01:56:40;;;;;;;0.97;0.97;;;;;;;8.71;100.00;95225.63;5133951;27;20560;-54
2022/01/08 01:59:08;;;;;;;2.00;0.70;;;;;;;8.52;100.00;95213.16;5133603;27;20483;-54
2022/01/08 02:01:37;;;;;;;0.67;0.67;;;;;;;8.78;100.00;95205.03;5133542;27;20553;-54
2022/01/08 02:04:05;;;;;;;0.63;0.50;;;;;;;9.01;100.00;95205.63;5133388;27;20431;-54
2022/01/08 02:06:34;;;;;;;0.40;0.40;;;;;;;9.07;100.00;95201.94;5133373;27;20922;-54
2022/01/08 02:09:03;;;;;;;0.50;0.50;;;;;;;8.66;100.00;95193.13;5133678;27;21007;-54
2022/01/08 02:11:32;;;;;;;2.00;1.90;;;;;;;8.34;100.00;95203.03;5133602;27;20455;-54
2022/01/08 02:14:04;;;;;;;1.07;1.07;;;;;;;8.49;100.00;95206.53;5133413;27;20457;-54
2022/01/08 02:16:33;;;;;;;0.53;0.53;;;;;;;8.24;100.00;95201.13;5133500;27;20505;-54
2022/01/08 02:19:01;;;;;;;1.70;1.40;;;;;;;8.17;100.00;95200.56;5133516;27;20473;-54
2022/01/08 02:21:31;;;;;;;0.50;0.47;;;;;;;8.12;100.00;95198.66;5133186;27;20465;-54
2022/01/08 02:23:59;;;;;;;1.27;1.27;;;;;;;8.37;100.00;95202.53;5132778;27;20518;-54
2022/01/08 02:26:28;;;;;;;0.33;0.30;;;;;;;8.50;100.00;95196.78;5133005;27;20422;-54
2022/01/08 02:28:56;;;;;;;0.70;0.67;;;;;;;8.53;100.00;95193.59;5133172;27;20418;-54
2022/01/08 02:31:25;;;;;;;1.77;1.67;;;;;;;8.55;100.00;95191.50;5133321;27;20784;-54
2022/01/08 02:33:54;;;;;;;0.40;0.30;;;;;;;8.68;100.00;95183.88;5133007;27;20488;-54
2022/01/08 02:36:22;;;;;;;0.67;0.67;;;;;;;8.75;100.00;95179.13;5132864;27;20526;-54
2022/01/08 02:38:52;;;;;;;0.50;0.50;;;;;;;8.77;100.00;95176.25;5133240;27;20437;-54
2022/01/08 02:41:21;;;;;;;1.57;1.00;;;;;;;8.59;100.00;95182.81;5132807;27;20523;-54
2022/01/08 02:43:53;;;;;;;0.87;0.87;;;;;;;8.50;100.00;95176.41;5132809;27;20450;-54
2022/01/08 02:46:21;;;;;;;0.63;0.63;;;;;;;8.52;100.00;95174.34;5133209;27;20460;-54
2022/01/08 02:48:50;;;;;;;1.07;1.07;;;;;;;8.40;100.00;95175.63;5132933;27;20473;-54
2022/01/08 02:51:18;;;;;;;0.40;0.37;;;;;;;8.51;100.00;95167.44;5132784;28;20418;-54
2022/01/08 02:53:47;;;;;;;0.40;0.20;;;;;;;8.83;100.00;95169.91;5132741;28;20465;-54
2022/01/08 02:56:17;;;;;;;0.40;0.30;;;;;;;8.88;100.00;95162.78;5132968;28;20501;-54
2022/01/08 02:58:45;;;;;;;0.40;0.30;;;;;;;8.73;100.00;95154.03;5133141;28;20803;-53
2022/01/08 03:01:13;;;;;;;0.53;0.50;;;;;;;8.89;100.00;95163.59;5132527;28;20478;-54
2022/01/08 03:03:42;;;;;;;0.30;0.30;;;;;;;8.89;100.00;95140.59;5132559;28;20434;-54
2022/01/08 03:06:10;;;;;;;0.67;0.67;;;;;;;8.83;100.00;95165.41;5132801;27;20441;-53
2022/01/08 03:08:39;;;;;;;0.60;0.60;;;;;;;8.50;100.00;95157.94;5132659;28;20852;-53
2022/01/08 03:11:08;;;;;;;0.40;0.30;;;;;;;8.99;100.00;95165.44;5132870;28;20518;-54
2022/01/08 03:13:37;;;;;;;0.40;0.40;;;;;;;9.17;100.00;95162.28;5132790;28;20426;-54
2022/01/08 03:16:06;;;;;;;0.60;0.40;;;;;;;9.05;100.00;95156.47;5132727;28;20547;-54
2022/01/08 03:18:37;;;;;;;2.77;0.40;;;;;;;9.00;100.00;95159.09;5132821;27;20453;-54
2022/01/08 03:21:14;;;;;;;0.30;0.20;;;;;;;9.23;100.00;95158.59;5132587;27;20434;-54
2022/01/08 03:23:48;;;;;;;0.30;0.20;;;;;;;9.39;100.00;95158.31;5132512;28;20426;-54
2022/01/08 03:26:18;;;;;;;1.10;1.03;;;;;;;9.49;100.00;95157.53;5132690;28;20510;-54
2022/01/08 03:28:48;;;;;;;0.47;0.47;;;;;;;9.61;100.00;95167.84;5133019;27;20458;-54
2022/01/08 03:31:18;;;;;;;0.40;0.40;;;;;;;9.59;100.00;95162.81;5132293;28;20972;-54
2022/01/08 03:33:47;;;;;;;6.60;1.63;;;;;;;9.57;100.00;95165.72;5132529;28;20427;-54
2022/01/08 03:36:17;;;;;;;0.30;0.20;;;;;;;9.56;100.00;95168.66;5132523;28;20462;-54
2022/01/08 03:38:46;;;;;;;0.50;0.50;;;;;;;9.55;100.00;95159.13;5132605;28;20419;-54
2022/01/08 03:41:14;;;;;;;0.87;0.87;;;;;;;8.87;100.00;95169.13;5132275;28;20430;-53
2022/01/08 03:43:42;;;;;;;0.30;0.30;;;;;;;8.75;100.00;95165.16;5132271;28;20855;-54
2022/01/08 03:46:12;;;;;;;1.53;0.60;;;;;;;8.67;100.00;95163.81;5132291;28;20430;-53
2022/01/08 03:51:23;;;;;;;0.73;0.73;;;;;;;8.42;100.00;95158.47;5132518;27;20477;-53
2022/01/08 03:53:51;;;;;;;0.60;0.57;;;;;;;8.30;100.00;95160.50;5132292;28;20449;-53
2022/01/08 03:56:20;;;;;;;1.80;0.80;;;;;;;8.30;100.00;95160.50;5133482;27;20998;-53
2022/01/08 03:58:49;;;;;;;0.60;0.60;;;;;;;8.82;100.00;95163.84;5136011;27;21031;-53
2022/01/08 04:01:19;;;;;;;0.60;0.60;;;;;;;9.08;100.00;95162.03;5135435;27;20820;-53
2022/01/08 04:03:47;;;;;;;0.97;0.80;;;;;;;9.26;100.00;95158.09;5135437;27;20415;-53
2022/01/08 04:06:16;;;;;;;0.30;0.20;;;;;;;9.24;100.00;95154.88;5135856;27;20501;-54
2022/01/08 04:08:44;;;;;;;0.30;0.30;;;;;;;9.24;100.00;95155.69;5136215;27;20483;-53
2022/01/08 04:11:13;;;;;;;0.40;0.30;;;;;;;9.13;100.00;95158.59;5136124;27;20422;-54
2022/01/08 04:13:42;;;;;;;0.50;0.50;;;;;;;9.18;100.00;95153.31;5136076;27;20422;-54
2022/01/08 04:16:14;;;;;;;1.33;0.37;;;;;;;9.38;100.00;95148.81;5135836;27;20465;-54
2022/01/08 04:18:44;;;;;;;0.60;0.60;;;;;;;9.45;100.00;95154.63;5136005;27;20430;-53
2022/01/08 04:21:44;;;;;;;0.97;0.50;;;;;;;9.34;100.00;95152.25;5135530;27;20419;-54
2022/01/08 04:24:09;;;;;;;1.37;0.70;;;;;;;9.34;100.00;95154.88;5135323;27;20438;-54
2022/01/08 04:26:37;;;;;;;0.50;0.50;;;;;;;9.46;100.00;95158.84;5135697;27;20475;-54
2022/01/08 04:29:06;;;;;;;0.40;0.30;;;;;;;9.50;100.00;95148.53;5135538;27;20538;-54
2022/01/08 04:31:34;;;;;;;0.83;0.83;;;;;;;9.48;100.00;95148.81;5135561;27;20487;-54
2022/01/08 04:34:04;;;;;;;0.50;0.50;;;;;;;9.32;100.00;95147.22;5135281;27;20433;-54
2022/01/08 04:36:33;;;;;;;5.30;1.37;;;;;;;9.32;100.00;95135.84;5135195;27;21060;-54
2022/01/08 04:39:01;;;;;;;0.50;0.50;;;;;;;9.21;100.00;95147.50;5135244;27;20460;-53
2022/01/08 04:41:30;;;;;;;0.30;0.20;;;;;;;9.13;100.00;95145.38;5135393;27;20476;-53
2022/01/08 04:43:58;;;;;;;1.37;1.37;;;;;;;9.16;100.00;95137.69;5135062;27;20487;-53
2022/01/08 04:46:26;;;;;;;0.73;0.30;;;;;;;9.32;100.00;95144.59;5135438;27;20474;-53
2022/01/08 04:48:55;;;;;;;0.30;0.20;;;;;;;9.33;100.00;95154.13;5134973;27;20495;-53
2022/01/08 04:51:25;;;;;;;4.23;0.90;;;;;;;9.42;100.00;95139.28;5135328;27;20450;-53
2022/01/08 04:53:53;;;;;;;0.93;0.93;;;;;;;9.10;100.00;95140.63;5135263;27;20423;-53
2022/01/08 04:56:22;;;;;;;0.37;0.33;;;;;;;9.29;100.00;95147.75;5134983;27;20517;-53
2022/01/08 04:58:50;;;;;;;0.30;0.20;;;;;;;9.33;100.00;95142.72;5135226;27;20423;-55
2022/01/08 05:01:19;;;;;;;0.40;0.30;;;;;;;9.39;100.00;95141.66;5134713;27;20487;-54
2022/01/08 05:03:48;;;;;;;0.50;0.50;;;;;;;9.40;100.00;95148.53;5135050;27;20422;-54
2022/01/08 05:06:16;;;;;;;0.40;0.33;;;;;;;9.40;100.00;95149.34;5134627;27;20419;-54
2022/01/08 05:08:46;;;;;;;0.30;0.20;;;;;;;9.36;100.00;95142.97;5133552;27;20987;-54
2022/01/08 05:11:14;;;;;;;0.37;0.33;;;;;;;9.39;100.00;95141.66;5133790;27;20962;-54
2022/01/08 05:13:45;;;;;;;0.63;0.63;;;;;;;9.32;100.00;95146.44;5134855;27;20480;-54
2022/01/08 05:16:13;;;;;;;0.40;0.33;;;;;;;8.96;100.00;95137.69;5134606;27;20475;-54
2022/01/08 05:18:42;;;;;;;0.40;0.20;;;;;;;8.95;100.00;95141.41;5134683;27;20531;-54
2022/01/08 05:21:18;;;;;;;0.30;0.20;;;;;;;8.93;100.00;95144.28;5134766;27;20418;-54
2022/01/08 05:23:49;;;;;;;2.07;2.03;;;;;;;8.99;100.00;95147.75;5134333;27;20483;-54
2022/01/08 05:26:18;;;;;;;0.30;0.20;;;;;;;9.19;100.00;95144.31;5134371;27;20522;-54
2022/01/08 05:28:46;;;;;;;0.83;0.83;;;;;;;9.14;100.00;95128.44;5134563;27;20507;-54
2022/01/08 05:31:18;;;;;;;1.33;1.00;;;;;;;9.20;100.00;95137.97;5134543;27;20479;-55
2022/01/08 05:33:47;;;;;;;0.97;0.97;;;;;;;9.24;100.00;95147.75;5134480;27;20499;-54
2022/01/08 05:36:16;;;;;;;0.60;0.60;;;;;;;9.29;100.00;95149.59;5134309;27;20491;-54
2022/01/08 05:38:44;;;;;;;0.40;0.30;;;;;;;9.22;100.00;95141.13;5133997;27;20554;-54
2022/01/08 05:41:14;;;;;;;0.67;0.63;;;;;;;9.24;100.00;95150.41;5134418;27;20434;-54
2022/01/08 05:43:43;;;;;;;0.40;0.30;;;;;;;9.22;100.00;95138.50;5134262;27;20479;-53
2022/01/08 05:46:11;;;;;;;0.50;0.50;;;;;;;9.32;100.00;95149.88;5133865;27;20438;-53
2022/01/08 05:48:40;;;;;;;1.17;1.00;;;;;;;9.28;100.00;95146.19;5134105;27;20828;-54
2022/01/08 05:51:09;;;;;;;1.23;0.47;;;;;;;9.29;100.00;95145.09;5133697;27;20411;-54
2022/01/08 05:53:37;;;;;;;2.13;2.00;;;;;;;9.29;100.00;95150.41;5133586;27;20474;-54
2022/01/08 05:56:06;;;;;;;0.40;0.40;;;;;;;9.31;100.00;95144.84;5134171;27;20422;-53
2022/01/08 05:58:35;;;;;;;0.93;0.93;;;;;;;9.31;100.00;95144.84;5133299;27;20559;-53
2022/01/08 06:01:04;;;;;;;5.60;0.97;;;;;;;9.30;100.00;95149.34;5133410;27;20980;-53
2022/01/08 06:03:32;;;;;;;0.40;0.40;;;;;;;9.26;100.00;95150.16;5133529;27;20491;-53
2022/01/08 06:06:01;;;;;;;2.40;2.30;;;;;;;9.30;100.00;95146.69;5133718;27;20492;-53
2022/01/08 06:08:29;;;;;;;0.40;0.40;;;;;;;9.36;100.00;95150.16;5133515;27;20479;-53
2022/01/08 06:10:58;;;;;;;0.40;0.40;;;;;;;9.37;100.00;95144.56;5133790;27;20423;-53
2022/01/08 06:13:26;;;;;;;3.33;3.23;;;;;;;9.34;100.00;95154.88;5133423;27;20435;-54
2022/01/08 06:15:56;;;;;;;0.50;0.50;;;;;;;9.27;100.00;95151.72;5133329;27;21132;-54
2022/01/08 06:18:24;;;;;;;0.30;0.30;;;;;;;9.15;100.00;95151.19;5132062;27;20470;-53
2022/01/08 06:20:55;;;;;;;2.90;1.63;;;;;;;9.19;100.00;95152.25;5133301;27;20438;-53
2022/01/08 06:23:24;;;;;;;0.47;0.47;;;;;;;9.32;100.00;95151.72;5133210;27;20427;-54
2022/01/08 06:25:53;;;;;;;0.50;0.50;;;;;;;9.31;100.00;95144.84;5133126;27;20418;-54
2022/01/08 06:28:21;;;;;;;2.73;1.33;;;;;;;9.31;100.00;95164.13;5133423;27;20460;-53
2022/01/08 06:30:50;;;;;;;1.17;1.10;;;;;;;9.28;100.00;95154.13;5132748;27;20462;-53
2022/01/08 06:33:20;;;;;;;3.77;0.63;;;;;;;9.34;100.00;95162.81;5133088;27;20442;-53
2022/01/08 06:35:48;;;;;;;1.77;1.67;;;;;;;9.38;100.00;95158.59;5133109;27;20517;-53
2022/01/08 06:38:17;;;;;;;9.03;3.67;;;;;;;9.41;100.00;95161.50;5133129;27;20565;-54
2022/01/08 06:40:45;;;;;;;0.70;0.70;;;;;;;9.48;100.00;95155.94;5133313;27;20423;-54
2022/01/08 06:43:14;;;;;;;0.60;0.50;;;;;;;9.36;100.00;95158.84;5133031;27;20435;-55
2022/01/08 06:45:42;;;;;;;1.37;1.27;;;;;;;9.32;100.00;95152.50;5133285;27;20499;-54
2022/01/08 06:48:11;;;;;;;1.87;1.77;;;;;;;9.19;100.00;95152.25;5133017;27;20912;-59
2022/01/08 06:50:40;;;;;;;6.03;1.77;;;;;;;8.99;100.00;95168.09;5132668;27;20425;-55
2022/01/08 06:53:09;;;;;;;0.70;0.70;;;;;;;8.88;100.00;95162.78;5132848;27;20430;-53
2022/01/08 06:55:37;;;;;;;0.40;0.30;;;;;;;9.15;100.00;95152.00;5132206;27;20851;-53
2022/01/08 06:58:06;;;;;;;8.80;0.80;;;;;;;8.13;100.00;94977.75;5132697;28;20462;-53
2022/01/08 07:00:34;;;;;;;1.77;1.70;;;;;;;9.27;100.00;95162.28;5132502;27;20528;-53
2022/01/08 07:03:04;;;;;;;3.10;2.90;;;;;;;8.84;100.00;95139.78;5132986;27;20439;-53
2022/01/08 07:05:33;;;;;;;1.80;1.73;;;;;;;9.08;100.00;95158.59;5132626;28;20426;-54
2022/01/08 07:08:03;;;;;;;3.17;3.07;;;;;;;9.03;100.00;95162.03;5132684;28;21006;-54
2022/01/08 07:10:31;;;;;;;1.10;1.10;;;;;;;8.39;100.00;95071.03;5132913;28;20427;-53
2022/01/08 07:13:00;;;;;;;5.13;3.60;;;;;;;7.34;100.00;94925.31;5132515;27;20458;-53
2022/01/08 07:15:29;;;;;;;3.03;2.70;;;;;;;8.74;100.00;95161.72;5132449;28;20419;-54
2022/01/08 07:17:57;;;;;;;1.73;1.27;;;;;;;7.53;100.00;94979.19;5132336;28;20519;-53
2022/01/08 07:20:26;;;;;;;8.30;2.50;;;;;;;8.92;100.00;95153.28;5132569;28;20419;-53
2022/01/08 07:22:55;;;;;;;2.63;2.53;;;;;;;9.16;100.00;95156.19;5132816;28;20864;-53
2022/01/08 07:25:25;;;;;;;0.40;0.40;;;;;;;9.34;100.00;95155.69;5132528;28;20433;-53
2022/01/08 07:27:53;;;;;;;1.73;1.63;;;;;;;9.28;100.00;95150.66;5132317;28;20462;-53
2022/01/08 07:30:22;;;;;;;0.43;0.43;;;;;;;9.23;100.00;95153.31;5132844;27;20783;-53
2022/01/08 07:32:52;;;;;;;1.07;1.03;;;;;;;9.25;100.00;95149.34;5136455;27;20927;-53
2022/01/08 07:35:23;;;;;;;2.00;1.33;;;;;;;9.27;100.00;95149.06;5136463;27;20419;-53
2022/01/08 07:37:53;;;;;;;4.27;2.30;;;;;;;8.07;100.00;94968.25;5136370;27;20918;-53
2022/01/08 07:40:22;;;;;;;0.47;0.40;;;;;;;9.06;100.00;95124.47;5136335;27;20479;-53
2022/01/08 07:42:52;;;;;;;4.03;1.73;;;;;;;8.52;100.00;95026.44;5136510;27;20430;-53
2022/01/08 07:45:21;;;;;;;2.50;1.90;;;;;;;8.66;100.00;95058.38;5136517;27;20450;-53
2022/01/08 07:47:50;;;;;;;1.63;1.60;;;;;;;9.36;100.00;95147.50;5136186;27;21003;-53
2022/01/08 07:50:18;;;;;;;1.13;1.13;;;;;;;8.47;100.00;94981.53;5136572;27;20838;-53
2022/01/08 07:52:47;;;;;;;2.30;1.73;;;;;;;8.92;100.00;95103.06;5136667;27;20526;-53
2022/01/08 07:55:15;;;;;;;0.93;0.93;;;;;;;8.90;100.00;95128.94;5136058;27;20918;-53
2022/01/08 07:57:44;;;;;;;1.60;1.50;;;;;;;9.03;100.00;95138.25;5136740;27;20860;-53
2022/01/08 08:00:15;;;;;;;1.90;1.80;;;;;;;9.23;100.00;95151.47;5136039;27;20430;-52
2022/01/08 08:02:43;;;;;;;0.87;0.60;;;;;;;9.04;100.00;95149.59;5095006;28;20790;-52
2022/01/08 08:05:12;;;;;;;4.13;3.93;;;;;;;8.34;100.00;95085.03;5095099;28;20762;-53
2022/01/08 08:07:41;;;;;;;2.40;2.20;;;;;;;7.92;100.00;94978.78;5094774;28;20424;-53
2022/01/08 08:10:12;;;;;;;1.07;1.07;;;;;;;9.28;100.00;95155.97;5094909;28;20494;-53
2022/01/08 08:12:41;;;;;;;1.70;1.60;;;;;;;8.50;100.00;95049.63;5095200;28;20433;-53
2022/01/08 08:15:13;;;;;;;17.50;1.67;;;;;;;9.11;100.00;95126.34;5095323;28;20482;-53
2022/01/08 08:17:43;;;;;;;2.73;1.20;;;;;;;9.05;100.00;95122.09;5095125;28;20858;-53
2022/01/08 08:20:13;;;;;;;1.30;1.20;;;;;;;9.07;100.00;95143.78;5094973;28;20493;-53
2022/01/08 08:22:42;;;;;;;1.93;1.80;;;;;;;9.03;100.00;95150.66;5094918;28;20471;-53
2022/01/08 08:25:12;;;;;;;2.67;2.50;;;;;;;9.02;100.00;95149.06;5094799;28;20478;-53
2022/01/08 08:27:41;;;;;;;2.30;2.23;;;;;;;8.65;100.00;95107.00;5094646;28;20429;-53
2022/01/08 08:30:10;;;;;;;5.30;4.80;;;;;;;8.55;100.00;95110.41;5094474;28;20485;-53
2022/01/08 08:32:39;;;;;;;1.17;1.17;;;;;;;8.79;100.00;95126.56;5093690;28;20847;-53
2022/01/08 08:35:10;;;;;;;1.70;1.60;;;;;;;9.07;100.00;95138.50;5094860;28;20428;-53
2022/01/08 08:37:40;;;;;;;1.47;1.37;;;;;;;9.33;100.00;95140.09;5094259;28;20429;-53
2022/01/08 08:40:11;;;;;;;2.17;2.13;;;;;;;8.92;100.00;95079.28;5094590;28;20464;-53
2022/01/08 08:42:40;;;;;;;2.97;2.60;;;;;;;9.23;100.00;95124.22;5093985;28;20436;-54
2022/01/08 08:45:10;;;;;;;1.97;1.87;;;;;;;9.45;100.00;95125.53;5093275;28;20909;-54
2022/01/08 08:47:39;;;;;;;1.67;1.57;;;;;;;9.24;100.00;95125.78;5094227;28;20482;-54
2022/01/08 08:50:12;;;;;;;2.70;2.60;;;;;;;9.57;100.00;95123.41;5094433;28;20470;-54
2022/01/08 08:52:41;;;;;;;2.60;2.40;;;;;;;9.64;100.00;95123.09;5093646;28;20432;-54
2022/01/08 08:55:11;;;;;;;1.10;1.10;;;;;;;8.56;100.00;94987.84;5093484;28;20428;-54
2022/01/08 08:57:39;;;;;;;2.10;2.00;;;;;;;9.03;100.00;95105.72;5094152;28;20437;-53
2022/01/08 09:00:09;;;;;;;2.00;1.90;;;;;;;9.36;100.00;95118.41;5094052;28;20476;-54
2022/01/08 09:02:38;;;;;;;2.37;2.27;;;;;;;9.38;100.00;95121.56;5133967;27;20478;-54
2022/01/08 09:05:07;;;;;;;5.97;5.47;;;;;;;9.20;100.00;95114.19;5134840;27;20475;-53
2022/01/08 09:07:38;;;;;;;3.53;3.37;;;;;;;9.08;100.00;95116.28;5134831;27;20454;-54
2022/01/08 09:10:10;;;;;;;6.90;3.83;;;;;;;8.94;100.00;95094.88;5134908;27;20458;-54
2022/01/08 09:12:42;;;;;;;12.67;4.20;;;;;;;9.09;100.00;95112.56;5134706;27;20427;-54
2022/01/08 09:15:14;;;;;;;4.60;4.30;;;;;;;9.38;100.00;95103.84;5134639;27;20458;-54
2022/01/08 09:17:43;;;;;;;3.27;3.13;;;;;;;9.30;100.00;95100.94;5134539;27;20518;-54
2022/01/08 09:20:12;;;;;;;1.53;1.53;;;;;;;9.34;100.00;95097.50;5134307;27;20492;-54
2022/01/08 09:22:42;;;;;;;4.80;4.50;;;;;;;9.16;100.00;95094.63;5134502;27;20834;-54
2022/01/08 09:25:12;;;;;;;2.53;2.40;;;;;;;8.97;100.00;95011.63;5134419;27;20431;-54
2022/01/08 09:27:40;;;;;;;1.53;1.53;;;;;;;9.44;100.00;95076.31;5134130;27;20427;-54
2022/01/08 09:30:09;;;;;;;3.33;1.23;;;;;;;8.20;100.00;94893.81;5134195;27;20452;-54
2022/01/08 09:32:40;;;;;;;0.60;0.50;;;;;;;9.47;100.00;95065.22;5134212;27;20946;-53
2022/01/08 09:35:09;;;;;;;1.40;1.40;;;;;;;9.30;100.00;95074.50;5134151;27;20517;-54
2022/01/08 09:37:39;;;;;;;5.90;2.23;;;;;;;9.11;100.00;95068.97;5134042;27;20487;-54
2022/01/08 09:40:13;;;;;;;2.87;2.77;;;;;;;8.97;100.00;95069.75;5133948;27;21001;-54
2022/01/08 09:42:42;;;;;;;4.97;3.87;;;;;;;8.00;100.00;94865.56;5134081;27;20430;-54
2022/01/08 09:45:12;;;;;;;6.87;6.17;;;;;;;9.21;100.00;95054.97;5134215;27;20475;-54
2022/01/08 09:47:40;;;;;;;2.03;1.90;;;;;;;9.23;100.00;95058.13;5134212;27;20438;-54
2022/01/08 09:50:10;;;;;;;2.90;2.50;;;;;;;8.77;100.00;95015.06;5133885;27;20422;-53
2022/01/08 09:52:38;;;;;;;3.33;3.03;;;;;;;9.23;100.00;95035.13;5133888;27;20483;-53
2022/01/08 09:55:10;;;;;;;12.27;2.27;;;;;;;8.83;100.00;94961.94;5133234;27;20422;-53
2022/01/08 09:57:38;;;;;;;2.50;2.30;;;;;;;9.17;100.00;94990.44;5132876;27;20469;-53
2022/01/08 10:00:13;;;;;;;2.20;2.10;;;;;;;9.43;100.00;95013.13;5133504;27;21029;-53
2022/01/08 10:02:42;;;;;;;6.03;2.03;;;;;;;9.49;100.00;95023.41;5092847;28;20493;-53
2022/01/08 10:05:13;;;;;;;1.53;1.40;;;;;;;9.05;100.00;94937.06;5092765;28;20419;-53
2022/01/08 10:07:42;;;;;;;1.93;1.83;;;;;;;8.76;100.00;94936.84;5092827;28;20460;-53
2022/01/08 10:10:17;;;;;;;0.60;0.60;;;;;;;9.42;100.00;94983.22;5092637;28;20481;-53
2022/01/08 10:12:50;;;;;;;2.43;1.63;;;;;;;9.84;100.00;95014.53;5092512;28;20474;-53
2022/01/08 10:18:21;;;;;;;2.47;2.27;;;;;;;9.50;100.00;95013.63;5092161;28;20436;-53
2022/01/08 10:20:50;;;;;;;2.30;2.20;;;;;;;9.78;100.00;95010.34;5092090;28;20463;-55
2022/01/08 10:23:21;;;;;;;1.40;1.40;;;;;;;9.73;100.00;94962.75;5092521;28;20473;-56
2022/01/08 10:25:59;;;;;;;3.60;2.70;;;;;;;9.90;100.00;95000.22;5092426;28;20924;-53
2022/01/08 10:28:35;;;;;;;0.60;0.60;;;;;;;9.48;100.00;94953.06;5092788;28;20435;-52
2022/01/08 10:31:14;;;;;;;1.03;1.03;;;;;;;9.68;100.00;94986.56;5092665;28;20448;-53
2022/01/08 10:33:45;;;;;;;3.00;2.90;;;;;;;9.14;100.00;94890.50;5092380;28;20420;-52
2022/01/08 10:36:14;;;;;;;9.93;4.20;;;;;;;9.76;100.00;94993.16;5092598;28;20465;-53
2022/01/08 10:38:42;;;;;;;2.83;2.73;;;;;;;9.67;100.00;94994.75;5092598;28;20433;-53
2022/01/08 10:41:16;;;;;;;5.07;4.67;;;;;;;9.73;100.00;94983.91;5092072;28;20533;-53
2022/01/08 10:43:45;;;;;;;3.80;1.90;;;;;;;9.81;100.00;94966.66;5092182;28;20493;-53
2022/01/08 10:46:15;;;;;;;2.33;2.23;;;;;;;9.62;100.00;94969.13;5092429;28;20503;-53
2022/01/08 10:48:46;;;;;;;4.50;4.30;;;;;;;9.58;100.00;94960.97;5092111;28;20494;-53
2022/01/08 10:51:17;;;;;;;3.37;3.17;;;;;;;9.45;100.00;94976.59;5092436;28;20435;-53
2022/01/08 10:54:00;;;;;;;6.83;3.73;;;;;;;8.85;100.00;94891.09;5090985;28;20482;-53
2022/01/08 10:56:33;;;;;;;1.93;1.83;;;;;;;9.74;100.00;94966.94;5092255;28;20458;-53
2022/01/08 10:59:04;;;;;;;3.47;3.27;;;;;;;9.79;100.00;94974.88;5092054;28;21003;-53
2022/01/08 11:01:54;;;;;;;1.00;1.00;;;;;;;10.01;100.00;94963.91;5114062;28;20494;-52
2022/01/08 11:04:34;;;;;;;1.50;1.23;;;;;;;10.08;100.00;94964.41;5132986;27;20462;-52
2022/01/08 11:07:05;;;;;;;0.67;0.67;;;;;;;9.79;100.00;94886.75;5137110;27;20505;-53
2022/01/08 11:09:36;;;;;;;1.20;0.80;;;;;;;9.04;100.00;94816.53;5137031;27;20479;-53
2022/01/08 11:12:09;;;;;;;1.93;1.93;;;;;;;9.91;100.00;94961.31;5137225;27;20495;-53
2022/01/08 11:17:34;;;;;;;2.27;2.17;;;;;;;10.10;100.00;94952.47;5136833;27;20469;-52
2022/01/08 11:20:07;;;;;;;1.23;1.23;;;;;;;10.34;100.00;94944.66;5137139;27;20519;-53
2022/01/08 11:22:39;;;;;;;3.07;2.87;;;;;;;9.87;100.00;94896.75;5136914;27;20439;-53
2022/01/08 11:25:10;;;;;;;5.50;2.87;;;;;;;8.31;100.00;94771.34;5136456;27;20525;-54
2022/01/08 11:27:56;;;;;;;3.30;3.10;;;;;;;9.33;100.00;94939.91;5136963;27;20784;-53
2022/01/08 11:30:26;;;;;;;4.50;2.30;;;;;;;9.36;100.00;94912.13;5136485;27;20426;-52
2022/01/08 11:32:59;;;;;;;2.30;2.03;;;;;;;9.88;100.00;94938.84;5136865;27;20466;-52
2022/01/08 11:35:42;;;;;;;2.67;1.10;;;;;;;9.33;100.00;94831.47;5136407;27;20937;-53
2022/01/08 11:38:12;;;;;;;2.03;1.93;;;;;;;10.24;100.00;94920.09;5136280;27;20945;-53
2022/01/08 11:40:42;;;;;;;0.80;0.73;;;;;;;10.08;100.00;94847.91;5136403;27;20553;-53
2022/01/08 11:43:14;;;;;;;2.30;2.20;;;;;;;10.69;100.00;94922.38;5136787;27;20426;-53
2022/01/08 11:45:47;;;;;;;0.53;0.40;;;;;;;10.31;100.00;94902.81;5136424;27;20480;-53
2022/01/08 11:48:18;;;;;;;2.00;1.33;;;;;;;10.26;100.00;94917.97;5136089;27;20509;-53
2022/01/08 11:50:52;;;;;;;1.77;1.57;;;;;;;10.20;100.00;94907.41;5136399;27;20475;-54
2022/01/08 11:53:23;;;;;;;0.60;0.60;;;;;;;9.54;100.00;94832.13;5136294;27;20430;-53
2022/01/08 11:55:53;;;;;;;0.60;0.60;;;;;;;10.23;100.00;94887.53;5136313;27;20953;-53
2022/01/08 11:58:26;;;;;;;0.87;0.87;;;;;;;10.28;100.00;94899.94;5136056;27;20430;-53
2022/01/08 12:00:57;;;;;;;1.03;1.03;;;;;;;10.29;100.00;94904.97;5135847;27;20489;-53
2022/01/08 12:03:32;;;;;;;1.37;1.37;;;;;;;9.81;100.00;94843.06;5136111;27;20514;-53
2022/01/08 12:06:32;;;;;;;0.90;0.90;;;;;;;10.37;100.00;94882.38;5136066;27;20436;-53
2022/01/08 12:09:18;;;;;;;2.77;2.67;;;;;;;10.20;100.00;94874.84;5135598;27;20458;-53